createdAt,value
2019-02-05T00:02:25.851Z,6.10
2019-02-05T00:05:16.211Z,7.07
2019-02-05T00:07:59.286Z,7.03
2019-02-05T00:10:49.871Z,9.37
2019-02-05T00:13:32.577Z,6.90
2019-02-05T00:16:22.968Z,6.40
2019-02-05T00:19:05.809Z,6.47
2019-02-05T00:21:56.220Z,6.40
2019-02-05T00:24:39.268Z,6.47
2019-02-05T00:27:29.620Z,8.37
2019-02-05T00:30:12.455Z,5.73
2019-02-05T00:33:15.809Z,9.67
2019-02-05T00:38:58.533Z,9.03
2019-02-05T00:41:48.960Z,9.13
2019-02-05T00:44:39.354Z,7.13
2019-02-05T00:47:21.917Z,8.33
2019-02-05T00:50:12.497Z,6.97
2019-02-05T00:52:55.176Z,9.40
2019-02-05T00:55:45.553Z,10.83
2019-02-05T00:58:28.832Z,7.97
2019-02-05T01:01:19.240Z,7.43
2019-02-05T01:04:09.555Z,8.03
2019-02-05T01:06:52.619Z,8.50
2019-02-05T01:09:42.981Z,7.57
2019-02-05T01:12:26.411Z,9.20
2019-02-05T01:18:45.664Z,7.40
2019-02-05T01:21:36.030Z,7.83
2019-02-05T01:24:26.392Z,10.70
2019-02-05T01:27:09.199Z,7.27
2019-02-05T01:29:52.087Z,7.77
2019-02-05T01:35:44.319Z,6.70
2019-02-05T01:38:34.687Z,7.70
2019-02-05T01:41:17.739Z,7.63
2019-02-05T01:47:36.611Z,7.53
2019-02-05T01:53:49.543Z,9.53
2019-02-05T01:56:40.422Z,10.77
2019-02-05T01:59:25.097Z,7.87
2019-02-05T02:02:07.823Z,7.70
2019-02-05T02:04:58.203Z,7.23
2019-02-05T02:07:41.018Z,9.53
2019-02-05T02:10:24.689Z,9.57
2019-02-05T02:13:15.029Z,9.33
2019-02-05T02:15:58.049Z,9.10
2019-02-05T02:18:48.426Z,10.30
2019-02-05T02:21:31.207Z,9.13
2019-02-05T02:24:21.600Z,9.40
2019-02-05T02:27:04.772Z,9.80
2019-02-05T02:29:55.166Z,8.53
2019-02-05T02:32:38.100Z,11.27
2019-02-05T02:35:28.489Z,10.30
2019-02-05T02:38:11.774Z,9.43
2019-02-05T02:41:02.136Z,10.67
2019-02-05T02:43:45.398Z,9.60
2019-02-05T02:46:35.771Z,11.47
2019-02-05T02:49:18.971Z,11.57
2019-02-05T02:52:09.315Z,9.47
2019-02-05T02:54:52.729Z,8.50
2019-02-05T02:57:44.969Z,12.47
2019-02-05T03:00:27.586Z,8.63
2019-02-05T03:03:17.944Z,10.37
2019-02-05T03:06:00.771Z,9.67
2019-02-05T03:08:51.108Z,10.23
2019-02-05T03:11:34.492Z,10.37
2019-02-05T03:14:24.880Z,10.13
2019-02-05T03:17:07.658Z,9.10
2019-02-05T03:19:58.018Z,11.30
2019-02-05T03:22:41.535Z,10.00
2019-02-05T03:25:33.625Z,12.30
2019-02-05T03:28:16.604Z,9.83
2019-02-05T03:31:07.004Z,9.83
2019-02-05T03:33:50.360Z,9.93
2019-02-05T03:36:40.767Z,11.83
2019-02-05T03:39:45.101Z,9.47
2019-02-05T03:42:35.468Z,10.90
2019-02-05T03:45:18.707Z,9.53
2019-02-05T03:48:09.203Z,9.47
2019-02-05T03:50:54.217Z,9.10
2019-02-05T03:54:25.143Z,9.37
2019-02-05T03:57:32.086Z,9.47
2019-02-05T04:04:01.136Z,9.53
2019-02-05T04:07:29.550Z,11.27
2019-02-05T04:10:37.816Z,9.60
2019-02-05T04:14:06.324Z,10.10
2019-02-05T04:16:55.602Z,10.97
2019-02-05T04:20:13.413Z,9.73
2019-02-05T04:23:21.488Z,10.23
2019-02-05T04:26:38.727Z,10.47
2019-02-05T04:29:43.883Z,9.60
2019-02-05T04:33:12.353Z,10.10
2019-02-05T04:36:01.471Z,10.27
2019-02-05T04:39:29.919Z,10.17
2019-02-05T04:42:17.830Z,9.97
2019-02-05T04:49:49.044Z,11.60
2019-02-05T04:52:51.200Z,9.73
2019-02-05T04:56:19.657Z,11.07
2019-02-05T04:59:21.357Z,9.63
2019-02-05T05:02:23.204Z,11.77
2019-02-05T05:05:25.291Z,11.77
2019-02-05T05:08:53.755Z,10.63
2019-02-05T05:11:36.301Z,11.37
2019-02-05T05:14:26.741Z,11.47
2019-02-05T05:17:09.274Z,11.43
2019-02-05T05:19:59.623Z,10.37
2019-02-05T05:22:42.414Z,12.73
2019-02-05T05:25:32.906Z,12.17
2019-02-05T05:28:16.341Z,13.63
2019-02-05T05:31:06.745Z,13.13
2019-02-05T05:33:49.976Z,13.40
2019-02-05T05:36:49.332Z,12.37
2019-02-05T05:39:31.915Z,13.93
2019-02-05T05:42:22.313Z,15.20
2019-02-05T05:45:05.781Z,13.03
2019-02-05T05:47:56.214Z,13.13
2019-02-05T05:50:38.842Z,13.17
2019-02-05T05:53:29.211Z,12.73
2019-02-05T05:56:12.477Z,15.03
2019-02-05T05:59:02.882Z,13.87
2019-02-05T06:01:46.211Z,14.37
2019-02-05T06:04:36.609Z,14.53
2019-02-05T06:07:19.764Z,14.47
2019-02-05T06:10:11.045Z,16.00
2019-02-05T06:12:53.736Z,17.83
2019-02-05T06:15:44.136Z,14.77
2019-02-05T06:18:50.107Z,15.40
2019-02-05T06:21:40.527Z,17.60
2019-02-05T06:24:43.842Z,14.13
2019-02-05T06:27:34.198Z,14.70
2019-02-05T06:30:17.409Z,15.33
2019-02-05T06:33:07.879Z,18.17
2019-02-05T06:36:12.721Z,16.03
2019-02-05T06:42:13.324Z,15.37
2019-02-05T06:45:05.707Z,20.07
2019-02-05T06:47:48.685Z,18.13
2019-02-05T06:50:39.062Z,18.80
2019-02-05T06:53:21.596Z,19.20
2019-02-05T06:56:11.982Z,18.20
2019-02-05T06:59:16.713Z,18.23
2019-02-05T07:02:27.544Z,19.30
2019-02-05T07:05:11.014Z,22.07
2019-02-05T07:08:01.570Z,19.73
2019-02-05T07:10:44.743Z,20.03
2019-02-05T07:13:35.184Z,19.90
2019-02-05T07:16:25.581Z,18.57
2019-02-05T07:19:08.382Z,25.40
2019-02-05T07:21:58.790Z,20.23
2019-02-05T07:24:42.144Z,21.47
2019-02-05T07:27:32.555Z,23.00
2019-02-05T07:30:19.673Z,23.57
2019-02-05T07:33:10.209Z,22.30
2019-02-05T07:36:14.551Z,19.63
2019-02-05T07:39:27.524Z,18.50
2019-02-05T07:42:30.194Z,23.30
2019-02-05T07:45:40.056Z,22.33
2019-02-05T07:48:22.797Z,23.87
2019-02-05T07:51:13.194Z,23.60
2019-02-05T07:53:55.943Z,25.60
2019-02-05T07:56:46.299Z,26.63
2019-02-05T07:59:29.612Z,25.23
2019-02-05T08:02:19.996Z,22.73
2019-02-05T08:05:03.045Z,23.37
2019-02-05T08:07:53.490Z,27.77
2019-02-05T08:10:36.972Z,24.47
2019-02-05T08:13:27.469Z,26.63
2019-02-05T08:16:10.919Z,25.90
2019-02-05T08:19:01.311Z,26.73
2019-02-05T08:21:44.830Z,25.63
2019-02-05T08:24:35.232Z,25.67
2019-02-05T08:27:18.396Z,26.07
2019-02-05T08:30:14.216Z,28.53
2019-02-05T08:32:57.137Z,25.50
2019-02-05T08:35:47.526Z,26.47
2019-02-05T08:38:30.566Z,24.13
2019-02-05T08:41:20.966Z,24.37
2019-02-05T08:44:04.190Z,26.13
2019-02-05T08:46:54.844Z,31.40
2019-02-05T08:49:37.860Z,26.23
2019-02-05T08:52:28.258Z,27.60
2019-02-05T08:55:12.576Z,25.47
2019-02-05T08:58:05.477Z,25.83
2019-02-05T09:00:48.673Z,24.77
2019-02-05T09:03:39.093Z,30.43
2019-02-05T09:06:22.301Z,26.73
2019-02-05T09:09:12.685Z,24.47
2019-02-05T09:11:56.037Z,26.47
2019-02-05T09:14:46.640Z,27.73
2019-02-05T09:17:29.566Z,28.67
2019-02-05T09:20:20.048Z,23.60
2019-02-05T09:23:03.102Z,27.23
2019-02-05T09:25:53.527Z,30.60
2019-02-05T09:28:43.925Z,26.10
2019-02-05T09:31:34.337Z,26.43
2019-02-05T09:34:40.872Z,26.40
2019-02-05T09:37:31.045Z,24.90
2019-02-05T09:40:15.980Z,25.53
2019-02-05T09:43:06.552Z,28.90
2019-02-05T09:46:11.059Z,27.17
2019-02-05T09:49:01.446Z,27.00
2019-02-05T09:51:44.856Z,28.40
2019-02-05T09:54:35.281Z,26.57
2019-02-05T09:57:18.030Z,26.47
2019-02-05T10:00:49.210Z,26.50
2019-02-05T10:03:32.754Z,21.47
2019-02-05T10:06:15.494Z,23.27
2019-02-05T10:12:22.482Z,23.53
2019-02-05T10:15:33.050Z,23.53
2019-02-05T10:18:37.310Z,18.60
2019-02-05T10:21:27.691Z,19.20
2019-02-05T10:24:11.169Z,19.70
2019-02-05T10:27:01.531Z,16.87
2019-02-05T10:29:44.415Z,15.43
2019-02-05T10:32:34.800Z,17.00
2019-02-05T10:35:18.475Z,21.70
2019-02-05T10:41:11.385Z,20.27
2019-02-05T10:44:01.791Z,17.03
2019-02-05T10:46:44.735Z,18.90
2019-02-05T10:49:35.381Z,18.43
2019-02-05T10:52:18.026Z,19.47
2019-02-05T10:55:10.001Z,21.07
2019-02-05T10:57:53.271Z,19.60
2019-02-05T11:00:43.656Z,21.17
2019-02-05T11:03:46.857Z,19.87
2019-02-05T11:06:37.232Z,19.43
2019-02-05T11:09:20.717Z,17.33
2019-02-05T11:12:11.111Z,16.67
2019-02-05T11:15:16.758Z,17.10
2019-02-05T11:21:37.912Z,14.83
2019-02-05T11:24:28.316Z,15.93
2019-02-05T11:27:11.765Z,15.60
2019-02-05T11:30:02.127Z,18.00
2019-02-05T11:32:44.864Z,17.53
2019-02-05T11:35:35.269Z,16.87
2019-02-05T11:38:18.144Z,14.77
2019-02-05T11:41:08.535Z,14.40
2019-02-05T11:44:13.572Z,16.00
2019-02-05T11:47:04.131Z,15.83
2019-02-05T11:49:47.377Z,16.30
2019-02-05T11:52:37.729Z,18.30
2019-02-05T11:55:22.163Z,16.97
2019-02-05T11:58:12.914Z,15.53
2019-02-05T12:04:23.169Z,16.37
2019-02-05T12:07:13.568Z,14.47
2019-02-05T12:13:40.469Z,15.93
2019-02-05T12:16:23.392Z,14.73
2019-02-05T12:19:13.855Z,14.87
2019-02-05T12:21:56.731Z,15.80
2019-02-05T12:24:47.117Z,16.00
2019-02-05T12:27:29.731Z,18.10
2019-02-05T12:34:10.202Z,15.77
2019-02-05T12:37:01.507Z,19.13
2019-02-05T12:39:51.952Z,18.03
2019-02-05T12:42:35.279Z,20.33
2019-02-05T12:45:27.572Z,19.50
2019-02-05T12:48:10.360Z,19.63
2019-02-05T12:51:00.724Z,20.73
2019-02-05T12:53:43.653Z,20.20
2019-02-05T12:56:34.033Z,19.57
2019-02-05T12:59:17.584Z,21.57
2019-02-05T13:05:37.013Z,19.97
2019-02-05T13:08:27.350Z,21.97
2019-02-05T13:11:17.784Z,21.70
2019-02-05T13:14:08.425Z,21.57
2019-02-05T13:16:51.399Z,22.63
2019-02-05T13:19:41.745Z,26.03
2019-02-05T13:22:25.213Z,25.93
2019-02-05T13:25:18.150Z,22.20
2019-02-05T13:28:00.915Z,21.50
2019-02-05T13:30:51.297Z,23.13
2019-02-05T13:33:34.851Z,22.03
2019-02-05T13:36:25.233Z,20.83
2019-02-05T13:39:11.859Z,22.07
2019-02-05T13:42:02.227Z,22.77
2019-02-05T13:44:45.215Z,22.30
2019-02-05T13:47:35.627Z,24.07
2019-02-05T13:50:19.562Z,22.07
2019-02-05T13:53:02.899Z,23.77
2019-02-05T13:55:53.305Z,24.43
2019-02-05T13:58:43.677Z,21.77
2019-02-05T14:01:26.243Z,23.97
2019-02-05T14:04:09.317Z,24.97
2019-02-05T14:06:59.705Z,25.37
2019-02-05T14:09:42.940Z,21.20
2019-02-05T14:12:33.313Z,22.77
2019-02-05T14:15:16.214Z,24.20
2019-02-05T14:18:27.332Z,27.03
2019-02-05T14:21:10.394Z,26.73
2019-02-05T14:24:00.797Z,25.87
2019-02-05T14:26:43.952Z,24.40
2019-02-05T14:33:02.029Z,25.63
2019-02-05T14:35:52.461Z,28.37
2019-02-05T14:38:42.940Z,27.13
2019-02-05T14:41:25.506Z,26.27
2019-02-05T14:44:08.680Z,30.93
2019-02-05T14:46:59.083Z,30.87
2019-02-05T14:49:41.955Z,30.23
2019-02-05T14:52:32.412Z,29.13
2019-02-05T14:55:15.597Z,28.93
2019-02-05T14:58:07.598Z,25.37
2019-02-05T15:01:12.029Z,27.77
2019-02-05T15:04:02.440Z,26.10
2019-02-05T15:06:45.773Z,31.47
2019-02-05T15:09:36.177Z,30.57
2019-02-05T15:12:40.858Z,27.90
2019-02-05T15:18:24.693Z,27.60
2019-02-05T15:21:15.084Z,27.33
2019-02-05T15:24:06.131Z,27.93
2019-02-05T15:26:48.718Z,30.07
2019-02-05T15:29:39.412Z,28.70
2019-02-05T15:32:41.018Z,29.53
2019-02-05T15:35:31.543Z,27.53
2019-02-05T15:38:14.464Z,28.53
2019-02-05T15:41:04.872Z,27.77
2019-02-05T15:43:47.447Z,27.87
2019-02-05T15:46:37.876Z,28.77
2019-02-05T15:49:20.852Z,30.37
2019-02-05T15:52:11.235Z,28.67
2019-02-05T15:54:54.545Z,32.80
2019-02-05T15:57:37.303Z,28.93
2019-02-05T16:00:27.883Z,31.67
2019-02-05T16:03:10.916Z,30.77
2019-02-05T16:06:01.285Z,28.57
2019-02-05T16:08:44.564Z,28.73
2019-02-05T16:11:34.959Z,27.90
2019-02-05T16:14:17.892Z,27.47
2019-02-05T16:17:08.317Z,24.30
2019-02-05T16:19:51.210Z,27.17
2019-02-05T16:22:41.738Z,24.30
2019-02-05T16:25:25.092Z,23.93
2019-02-05T16:28:15.786Z,26.60
2019-02-05T16:31:18.504Z,26.37
2019-02-05T16:34:08.879Z,28.03
2019-02-05T16:36:51.468Z,26.53
2019-02-05T16:39:41.841Z,24.30
2019-02-05T16:42:25.106Z,22.40
2019-02-05T16:45:17.756Z,22.50
2019-02-05T16:48:00.691Z,23.47
2019-02-05T16:50:51.075Z,24.77
2019-02-05T16:53:34.730Z,23.53
2019-02-05T16:56:18.044Z,25.83
2019-02-05T16:59:08.473Z,23.30
2019-02-05T17:01:51.298Z,21.87
2019-02-05T17:04:41.692Z,22.83
2019-02-05T17:07:24.528Z,23.50
2019-02-05T17:13:45.458Z,23.73
2019-02-05T17:16:36.036Z,21.90
2019-02-05T17:19:19.766Z,23.43
2019-02-05T17:22:10.251Z,22.77
2019-02-05T17:24:52.973Z,21.10
2019-02-05T17:27:43.389Z,24.23
2019-02-05T17:30:27.983Z,23.37
2019-02-05T17:33:18.375Z,23.57
2019-02-05T17:36:23.392Z,27.17
2019-02-05T17:39:14.373Z,22.97
2019-02-05T17:41:57.319Z,26.73
2019-02-05T17:44:47.710Z,24.33
2019-02-05T17:47:52.220Z,22.80
2019-02-05T17:50:42.709Z,27.60
2019-02-05T17:53:25.617Z,25.57
2019-02-05T17:56:16.024Z,27.07
2019-02-05T17:59:20.719Z,30.20
2019-02-05T18:02:11.106Z,29.13
2019-02-05T18:04:54.075Z,27.37
2019-02-05T18:07:44.617Z,26.50
2019-02-05T18:10:49.651Z,28.50
2019-02-05T18:13:40.080Z,27.83
2019-02-05T18:16:30.474Z,28.80
2019-02-05T18:19:13.416Z,28.47
2019-02-05T18:22:04.089Z,27.00
2019-02-05T18:24:47.233Z,28.73
2019-02-05T18:27:37.630Z,26.53
2019-02-05T18:30:21.613Z,28.23
2019-02-05T18:33:12.002Z,23.67
2019-02-05T18:35:55.491Z,27.10
2019-02-05T18:38:45.865Z,25.97
2019-02-05T18:41:48.839Z,23.10
2019-02-05T18:44:39.358Z,26.50
2019-02-05T18:47:22.085Z,24.60
2019-02-05T18:50:15.369Z,23.63
2019-02-05T18:52:59.685Z,22.70
2019-02-05T18:55:42.759Z,22.47
2019-02-05T18:58:33.179Z,21.47
2019-02-05T19:01:16.386Z,21.80
2019-02-05T19:04:06.895Z,23.70
2019-02-05T19:06:49.656Z,23.13
2019-02-05T19:09:40.072Z,22.40
2019-02-05T19:12:23.194Z,23.10
2019-02-05T19:15:33.438Z,24.53
2019-02-05T19:18:16.857Z,22.93
2019-02-05T19:21:07.273Z,23.47
2019-02-05T19:23:52.593Z,22.40
2019-02-05T19:26:48.079Z,23.17
2019-02-05T19:29:32.077Z,22.57
2019-02-05T19:35:35.740Z,20.17
2019-02-05T19:38:26.799Z,19.77
2019-02-05T19:41:10.720Z,21.07
2019-02-05T19:44:01.693Z,20.57
2019-02-05T19:46:57.250Z,19.37
2019-02-05T19:50:09.385Z,18.80
2019-02-05T19:53:13.790Z,22.00
2019-02-05T19:56:04.807Z,21.13
2019-02-05T19:59:09.535Z,18.10
2019-02-05T20:02:00.606Z,18.73
2019-02-05T20:04:44.624Z,19.47
2019-02-05T20:07:36.479Z,20.87
2019-02-05T20:10:40.865Z,23.67
2019-02-05T20:13:39.902Z,20.20
2019-02-05T20:16:36.069Z,17.43
2019-02-05T20:19:27.041Z,20.37
2019-02-05T20:22:10.869Z,22.83
2019-02-05T20:25:01.807Z,20.07
2019-02-05T20:27:46.017Z,16.93
2019-02-05T20:30:36.967Z,19.10
2019-02-05T20:33:21.105Z,18.47
2019-02-05T20:36:12.113Z,18.57
2019-02-05T20:38:55.427Z,20.80
2019-02-05T20:41:46.429Z,18.37
2019-02-05T20:44:29.696Z,20.40
2019-02-05T20:47:20.721Z,17.87
2019-02-05T20:50:05.306Z,19.60
2019-02-05T20:52:56.501Z,17.93
2019-02-05T20:55:39.921Z,17.90
2019-02-05T20:58:31.123Z,19.77
2019-02-05T21:01:35.299Z,18.20
2019-02-05T21:04:26.313Z,17.67
2019-02-05T21:07:09.706Z,19.23
2019-02-05T21:10:00.692Z,18.97
2019-02-05T21:12:44.246Z,21.57
2019-02-05T21:15:35.371Z,17.83
2019-02-05T21:18:19.099Z,17.47
2019-02-05T21:21:10.068Z,19.07
2019-02-05T21:23:53.338Z,18.23
2019-02-05T21:26:44.366Z,17.57
2019-02-05T21:29:27.865Z,18.00
2019-02-05T21:32:18.857Z,18.40
2019-02-05T21:35:02.480Z,16.73
2019-02-05T21:37:53.423Z,17.57
2019-02-05T21:40:37.263Z,22.23
2019-02-05T21:43:28.264Z,18.10
2019-02-05T21:46:11.857Z,17.93
2019-02-05T21:49:02.819Z,17.63
2019-02-05T21:51:46.240Z,17.43
2019-02-05T21:54:37.243Z,16.90
2019-02-05T21:57:21.132Z,17.10
2019-02-05T22:00:55.982Z,17.33
2019-02-05T22:04:01.158Z,15.33
2019-02-05T22:06:52.182Z,15.43
2019-02-05T22:09:35.633Z,13.60
2019-02-05T22:12:26.727Z,15.63
2019-02-05T22:14:58.583Z,16.53
2019-02-05T22:17:50.059Z,15.97
2019-02-05T22:20:33.494Z,17.47
2019-02-05T22:23:24.588Z,13.33
2019-02-05T22:26:08.469Z,14.77
2019-02-05T22:28:59.408Z,14.80
2019-02-05T22:31:43.352Z,13.27
2019-02-05T22:34:39.207Z,19.17
2019-02-05T22:37:38.643Z,13.67
2019-02-05T22:40:29.635Z,13.93
2019-02-05T22:43:12.990Z,15.03
2019-02-05T22:46:03.974Z,14.13
2019-02-05T22:49:08.226Z,14.37
2019-02-05T22:51:51.647Z,15.80
2019-02-05T22:54:42.687Z,13.50
2019-02-05T22:57:26.026Z,16.17
2019-02-05T23:04:23.451Z,13.93
2019-02-05T23:07:11.369Z,15.07
2019-02-05T23:10:40.417Z,14.73
2019-02-05T23:13:24.324Z,14.13
2019-02-05T23:16:15.633Z,14.47
2019-02-05T23:18:58.951Z,13.93
2019-02-05T23:21:49.842Z,13.70
2019-02-05T23:24:33.730Z,16.27
2019-02-05T23:27:24.633Z,13.07
2019-02-05T23:30:12.394Z,13.63
2019-02-05T23:33:03.303Z,14.60
2019-02-05T23:35:46.708Z,15.43
2019-02-05T23:38:38.243Z,12.70
2019-02-05T23:41:21.450Z,14.07
2019-02-05T23:44:12.391Z,12.50
2019-02-05T23:46:55.975Z,13.70
2019-02-05T23:49:46.908Z,11.63
2019-02-05T23:52:30.307Z,14.90
2019-02-05T23:55:21.596Z,13.63
2019-02-05T23:58:05.638Z,10.63
